Hlavní strana
METAR-TAF:

METAR-TAF

Letiště :

Letiště Sliač

Banská Bystrica, Slovensko

zeměpisná šířka: 48-38-17N, zeměpisná délka: 019-08-03E, výška: 318 m

Aktuální stav počasí

Zpráva byla vytvořena před 27 minutami, v 11:00 UTC
vítr z různých směrů 1 kt
Teplota 20°C
Vlhkost vzduchu 40%
Tlak 1024 hPa
Viditelnost 10 km a více
Žádná oblačnost pod 1500 m, nevyskytují se cumulonimby.

METAR: LZSL 151100Z VRB01KT CAVOK 20/06 Q1024

Čas: 13:27 (11:27 UTC)

Předpověď počasí

Zpráva byla vytvořena před 3 hodinami a 27 minutami, v 08:00 UTC
Předpověď platná od 15 v 09 UTC do 15 v 18 UTC
vítr z různých směrů 2 kt
Viditelnost 10 km a více
Žádná oblačnost pod 1500 m, nevyskytují se cumulonimby.
Změna
od 15 v 09 UTC do 15 v 11 UTC
Jihojihovýchodní vítr 9 kt
Změna
od 15 v 17 UTC do 15 v 18 UTC
Severovýchodní vítr 4 kt

TAF: LZSL 150800Z 1509/1518 VRB02KT CAVOK BECMG 1509/1511 15009KT BECMG 1517/1518 05004KT

Stav a předpovědi počasí z více než 4 000 letišť (zprávy METAR a TAF).

Červené a žluté tečky na mapě představují dostupné meteorologické stanice.

Když kurzor umístíte na tečku, zobrazí se název stanice.

Pak kliknutím zobrazíte stav a předpověď počasí.

Chcete-li změnit mapu, kliknutím na zelené tlačítko se znaménkem +mapu přiblížíte, kliknutím na zelené tlačítko se znaménkem – mapu oddálíte a kliknutím na zelené šipky přejdete na sousední mapy.


METAR-TAF: